Valley Peak, Santa Cruz Island Reserve, California Weather observations

Data are for 10 minute period ending at time listed.
 Day   Time   Solar   Ave.   Ave.  Ave.  Vector  Max.   Baro.   Total    
  of    of     Rad.   Air    Rel.  Wind   Wind   Wind  Press.  Precip.   
Year   Day            Temp.  Hum.  Speed  Dir.   Gust                    
2017   (PST)  Kw/m2    F      %     mph   deg.    mph    mb.     in.     
-------------------------------------------------------------------------
  52    2:40   0.00   53.6   100    6.5   143    14.0   974.9    0.00 
  52    2:50   0.00   53.6   100    6.4   147    14.8   974.9    0.00 
  52    3:00   0.00   53.6   100    6.4   148    16.0   974.7    0.00 
  52    3:10   0.00   53.6   100    6.8   150    13.0   974.6    0.00 
  52    3:20   0.00   53.6   100    5.9   153    13.7   974.6    0.00 
  52    3:30   0.00   53.5   100    6.8   153    14.8   974.6    0.00 
  52    3:40   0.00   53.5   100    5.8   153    15.6   974.5    0.00 
  52    3:50   0.00   53.5   100    4.6   150    11.8   974.6    0.00 
  52    4:00   0.00   53.5   100    4.3   148    11.5   974.5    0.01 
  52    4:10   0.00   53.5   100    5.7   153    13.2   974.5    0.01 
  52    4:20   0.00   53.5   100    4.6   152    10.7   974.7    0.01 
  52    4:30   0.00   53.5   100    5.0   148    13.2   974.6    0.02 
  52    4:40   0.00   53.5   100    4.1   148    11.5   974.6    0.01 
  52    4:50   0.00   53.5   100    5.3   149    11.5   974.6    0.02 
  52    5:00   0.00   53.6   100    6.1   145    12.9   974.7    0.02 
  52    5:10   0.00   53.5   100    6.7   151    13.2   974.5    0.00 
  52    5:20   0.00   53.4   100    5.5   154    12.3   974.3    0.01 
  52    5:30   0.00   53.3   100    5.8   147    13.9   974.5    0.01 
  52    5:40   0.00   53.3   100    5.7   151    12.2   974.6    0.02 
  52    5:50   0.00   53.2   100    4.6   146    10.7   974.5    0.02 
  52    6:00   0.00   53.2   100    5.2   149    11.4   974.5    0.02 
  52    6:10   0.00   53.2   100    5.4   148    12.9   974.5    0.01 
  52    6:20   0.00   53.1   100    5.4   148    11.0   974.5    0.01 
  52    6:30   0.00   53.2   100    4.1   158     9.9   974.4    0.02 
  52    6:40   0.00   53.2   100    4.1   146    10.3   974.6    0.01 
  52    6:50   0.00   53.2   100    4.2   146    14.0   974.8    0.02 
  52    7:00   0.00   53.3   100    5.4   146    14.2   975.0    0.01 
  52    7:10   0.00   53.2   100    5.3   154    12.5   975.0    0.04 
  52    7:20   0.00   53.3   100    6.6   145    15.3   975.2    0.04 
  52    7:30   0.01   53.3   100    5.0   149    12.3   975.2    0.04 
  52    7:40   0.03   53.4   100    4.4   155    11.3   975.3    0.04 
  52    7:50   0.04   53.6   100    2.8   151     8.8   975.4    0.02 
  52    8:00   0.03   53.7   100    2.7   140     7.7   975.5    0.02 
  52    8:10   0.01   53.6   100    3.3   144     9.0   975.7    0.02 
  52    8:20   0.02   53.5   100    4.1   145    10.1   975.7    0.01 
  52    8:30   0.05   53.6   100    4.8   142     9.7   975.8    0.01 
  52    8:40   0.07   53.8   100    4.4   141    10.2   975.9    0.02 
  52    8:50   0.05   53.7   100    5.2   148     9.9   976.1    0.01 
  52    9:00   0.08   53.8   100    5.6   152    11.5   976.1    0.01 
  52    9:10   0.09   54.2   100    6.2   145    11.2   976.0    0.01 
  52    9:20   0.08   54.2   100    6.2   146    12.4   975.9    0.00 
  52    9:30   0.07   54.0   100    5.4   146    12.1   976.1    0.00 
  52    9:40   0.09   54.1   100    4.1   142     8.9   976.1    0.00 
  52    9:50   0.12   54.7   100    5.2   136    11.0   976.2    0.01 
  52   10:00   0.08   54.7   100    5.6   139    11.9   976.2    0.01 
  52   10:10   0.09   54.6   100    6.0   136    12.2   976.3    0.01 
  52   10:20   0.14   54.8   100    5.4   138    12.3   976.2    0.01 
  52   10:30   0.21   55.2   100    6.1   135    12.7   976.0    0.01 
  52   10:40   0.23   55.8   100    5.6   139    11.1   976.0    0.00 
  52   10:50   0.15   55.7   100    4.6   142    11.3   976.0    0.01 
  52   11:00   0.17   55.3   100    5.9   137    10.7   976.1    0.00 
  52   11:10   0.14   55.5   100    4.2   139    10.4   976.1    0.01 
  52   11:20   0.23   55.9   100    3.9   143     8.6   976.1    0.01 
  52   11:30   0.13   55.8   100    4.4   142     8.7   975.9    0.00 
  52   11:40   0.15   55.5   100    5.6   141    10.7   975.7    0.01 
  52   11:50   0.10   55.3   100    4.6   140     9.1   975.6    0.02 
  52   12:00   0.18   55.5   100    5.2   147    11.3   975.5    0.00 
  52   12:10   0.17   55.7   100    3.9   157     7.5   975.4    0.00 
  52   12:20   0.10   55.6   100    4.8   159     9.3   975.4    0.01 
  52   12:30   0.15   55.4   100    4.5   157     8.8   975.2    0.00 
  52   12:40   0.18   55.6   100    5.2   168     9.1   975.0    0.01 
  52   12:50   0.13   55.5   100    5.1   177     7.3   974.8    0.00 
  52   13:00   0.14   55.9   100    4.5   168     7.7   974.7    0.00 
  52   13:10   0.13   55.9   100    2.7   152     6.6   974.6    0.00 
  52   13:20   0.12   55.7   100    3.8   168     7.0   974.6    0.00 
  52   13:30   0.09   55.1   100    4.0   183     8.6   974.4    0.00 
  52   13:40   0.17   55.4   100    3.8   210     7.3   974.3    0.00 
  52   13:50   0.17   55.8   100    3.9   204     6.3   974.2    0.00 
  52   14:00   0.15   55.9   100    4.4   214     6.7   974.2    0.00 
  52   14:10   0.20   56.0   100    4.5   222     7.8   974.2    0.00 
  52   14:20   0.16   56.3   100    3.0   211     5.4   974.1    0.00 
  52   14:30   0.16   56.3   100    4.7   220     8.3   973.8    0.00 
  52   14:40   0.24   56.4   100    3.2   201     5.6   973.8    0.00 
  52   14:50   0.28   56.9   100    4.3   193     8.5   973.7    0.00 
  52   15:00   0.16   56.7   100    5.1   203    10.0   973.7    0.00 
  52   15:10   0.10   56.1   100    5.8   214     9.1   973.7    0.00 
  52   15:20   0.10   55.9   100    6.5   225    10.8   973.7    0.00 
  52   15:30   0.07   55.7   100    7.4   223    12.2   973.8    0.00 
  52   15:40   0.18   55.8   100    7.0   237    10.8   973.8    0.00 
  52   15:50   0.13   55.7   100    8.2   264    12.6   973.8    0.00 
  52   16:00   0.20   56.0   100    4.0   273    10.1   973.7    0.00 
  52   16:10   0.10   55.9   100    3.9    11     7.4   973.6    0.00 
  52   16:20   0.20   55.6   100    7.4    26    11.0   973.4    0.00 
  52   16:30   0.12   54.9   100    8.5    25    11.5   973.3    0.00 
  52   16:40   0.11   54.6   100    7.3    20     9.9   973.3    0.00 
  52   16:50   0.09   54.2   100    6.0    18     9.9   973.3    0.00 
  52   17:00   0.16   54.5   100    4.6     0     7.8   973.4    0.00 
  52   17:10   0.09   54.3   100    3.6   341     6.7   973.4    0.00 
  52   17:20   0.04   53.7   100    4.1   349     6.8   973.2    0.00 
  52   17:30   0.03   53.5   100    4.9    12     7.2   973.2    0.00 
  52   17:40   0.01   53.3   100    7.8    22    12.3   973.3    0.00 
  52   17:50   0.00   53.1   100    8.1    22    10.8   973.3    0.00 
  52   18:00   0.00   52.8   100    8.1    25    10.5   973.3    0.00 
  52   18:10   0.00   52.5   100    8.8    14    11.3   973.3    0.00 
  52   18:20   0.00   52.4   100    8.2     0    12.4   973.4    0.00 
  52   18:30   0.00   52.4   100    8.0     6    12.0   973.3    0.00 
  52   18:40   0.00   52.2   100    7.8     6    11.5   973.2    0.00 
  52   18:50   0.00   51.8   100    6.7     9     9.3   973.3    0.00 
  52   19:00   0.00   51.1   100    9.2   355    12.3   973.3    0.00 
  52   19:10   0.00   50.5   100    8.7   346    12.4   973.3    0.00 
  52   19:20   0.00   50.2   100    6.5   328     9.1   973.5    0.00 
  52   19:30   0.00   49.8   100    7.3   291    10.3   973.4    0.00 
  52   19:40   0.00   49.7   100    8.6   313    12.3   973.3    0.00 
  52   19:50   0.00   49.7   100    8.3   310    12.9   973.4    0.00 
  52   20:00   0.00   50.6    90    8.7   312    14.6   973.6    0.00 
  52   20:10   0.00   50.9    88    6.2   306    10.4   973.7    0.00 
  52   20:20   0.00   50.8    89    5.3   296     8.4   973.7    0.00 
  52   20:30   0.00   50.6    89    4.9   287     7.7   973.8    0.00 
  52   20:40   0.00   50.8    89    5.6   281     8.7   974.0    0.00 
  52   20:50   0.00   50.8    90    7.1   287    10.2   974.2    0.00 
  52   21:00   0.00   50.9    90    6.4   302    11.1   974.1    0.00 
  52   21:10   0.00   50.7    92    7.0   338    10.7   974.1    0.00 
  52   21:20   0.00   50.6    93    6.6   350    11.5   973.9    0.00 
  52   21:30   0.00   50.6    93    8.2   328    14.9   974.0    0.00 
  52   21:40   0.00   50.5    89    7.9   319    12.4   974.1    0.00 
  52   21:50   0.00   50.5    85    7.6   327    12.0   974.0    0.00 
  52   22:00   0.00   50.4    84    9.7   321    15.3   973.9    0.00 
  52   22:10   0.00   50.3    87    9.5   329    16.8   973.9    0.00 
  52   22:20   0.00   50.3    91    9.7   327    16.6   973.8    0.00 
  52   22:30   0.00   50.3    92   11.4   323    16.6   973.8    0.00 
  52   22:40   0.00   50.5    88   14.0   315    20.2   973.7    0.00 
  52   22:50   0.00   50.5    88   12.7   319    19.4   973.6    0.00 
  52   23:00   0.00   50.4    80   12.7   320    18.7   973.7    0.00 
  52   23:10   0.00   50.3    75   11.4   320    19.3   973.6    0.00 
  52   23:20   0.00   50.2    77   10.2   320    17.2   973.7    0.00 
  52   23:30   0.00   50.0    78   10.7   317    15.5   973.6    0.00 
  52   23:40   0.00   49.8    79    8.8   332    16.1   973.4    0.00 
  52   23:50   0.00   49.7    79   10.0   334    17.8   973.4    0.00 
  53    0:00   0.00   49.6    82    9.7   341    18.9   973.3    0.00 
  53    0:10   0.00   49.5    85    9.3   346    14.9   973.1    0.00 
  53    0:20   0.00   49.4    86    8.0   335    15.1   973.1    0.00 
  53    0:30   0.00   49.4    88    8.4   314    15.5   973.0    0.00 
  53    0:40   0.00   49.2    87    4.8   290     8.6   972.9    0.00 
  53    0:50   0.00   49.4    85    7.9   310    14.5   972.8    0.00 
  53    1:00   0.00   49.8    81   10.1   318    16.4   972.5    0.00 
  53    1:10   0.00   50.0    80    9.7   302    15.1   972.6    0.00 
  53    1:20   0.00   49.3    82    7.7   275    13.1   972.6    0.00 
  53    1:30   0.00   49.0    83    8.6   292    12.6   972.6    0.00 
  53    1:40   0.00   48.9    86    9.5   306    15.2   972.4    0.00 
  53    1:50   0.00   48.8    88    9.1   324    16.9   972.0    0.00 
  53    2:00   0.00   48.7    90   12.0   319    19.1   971.9    0.00 
  53    2:10   0.00   48.9    87   11.4   314    17.6   971.6    0.00 
  53    2:20   0.00   49.0    84   12.6   310    18.6   971.5    0.00 
  53    2:30   0.00   49.2    80   13.3   310    21.0   971.4    0.00 

Return to Valley Peak, Santa Cruz Island Reserve graphs page.


Western Regional Climate Center,wrcc@dri.edu